sensor_id;sensor_type;location;lat;lon;timestamp;pressure;altitude;pressure_sealevel;temperature;humidity
59104;BME280;51449;51.676;5.812;2023-02-15T00:00:31;102869.25;;;3.27;70.98
59104;BME280;51449;51.676;5.812;2023-02-15T00:02:52;102877.66;;;3.25;70.88
59104;BME280;51449;51.676;5.812;2023-02-15T00:05:14;102883.34;;;3.24;70.94
59104;BME280;51449;51.676;5.812;2023-02-15T00:07:36;102883.81;;;3.20;71.20
59104;BME280;51449;51.676;5.812;2023-02-15T00:09:57;102879.28;;;3.14;71.58
59104;BME280;51449;51.676;5.812;2023-02-15T00:12:19;102869.69;;;3.12;71.69
59104;BME280;51449;51.676;5.812;2023-02-15T00:14:41;102878.72;;;3.12;71.46
59104;BME280;51449;51.676;5.812;2023-02-15T00:17:03;102875.75;;;3.14;71.22
59104;BME280;51449;51.676;5.812;2023-02-15T00:19:25;102883.91;;;3.14;71.43
59104;BME280;51449;51.676;5.812;2023-02-15T00:21:48;102878.00;;;3.17;71.23
59104;BME280;51449;51.676;5.812;2023-02-15T00:24:11;102883.00;;;3.20;71.38
59104;BME280;51449;51.676;5.812;2023-02-15T00:26:38;102879.19;;;3.21;71.25
59104;BME280;51449;51.676;5.812;2023-02-15T00:29:00;102877.06;;;3.23;71.54
59104;BME280;51449;51.676;5.812;2023-02-15T00:31:22;102876.00;;;3.24;71.18
59104;BME280;51449;51.676;5.812;2023-02-15T00:33:44;102873.28;;;3.24;71.45
59104;BME280;51449;51.676;5.812;2023-02-15T00:36:08;102872.69;;;3.22;71.11
59104;BME280;51449;51.676;5.812;2023-02-15T00:38:31;102869.38;;;3.20;70.93
59104;BME280;51449;51.676;5.812;2023-02-15T00:40:54;102867.94;;;3.17;71.14
59104;BME280;51449;51.676;5.812;2023-02-15T00:43:17;102870.88;;;3.16;71.89
59104;BME280;51449;51.676;5.812;2023-02-15T00:45:39;102856.06;;;3.12;71.84
59104;BME280;51449;51.676;5.812;2023-02-15T00:48:00;102857.97;;;3.11;71.68
59104;BME280;51449;51.676;5.812;2023-02-15T00:50:22;102850.50;;;3.07;71.74
59104;BME280;51449;51.676;5.812;2023-02-15T00:52:44;102847.66;;;3.02;71.75
59104;BME280;51449;51.676;5.812;2023-02-15T00:55:06;102848.94;;;2.99;71.60
59104;BME280;51449;51.676;5.812;2023-02-15T00:57:28;102841.84;;;2.98;71.66
59104;BME280;51449;51.676;5.812;2023-02-15T00:59:50;102833.31;;;2.94;71.75
59104;BME280;51449;51.676;5.812;2023-02-15T01:02:11;102844.19;;;2.94;71.35
59104;BME280;51449;51.676;5.812;2023-02-15T01:04:33;102838.63;;;2.89;71.73
59104;BME280;51449;51.676;5.812;2023-02-15T01:06:55;102839.91;;;2.87;71.65
59104;BME280;51449;51.676;5.812;2023-02-15T01:09:17;102840.38;;;2.84;71.40
59104;BME280;51449;51.676;5.812;2023-02-15T01:11:38;102828.88;;;2.82;71.47
59104;BME280;51449;51.676;5.812;2023-02-15T01:14:00;102837.06;;;2.82;71.67
59104;BME280;51449;51.676;5.812;2023-02-15T01:16:23;102833.97;;;2.78;71.70
59104;BME280;51449;51.676;5.812;2023-02-15T01:18:47;102824.59;;;2.74;71.22
59104;BME280;51449;51.676;5.812;2023-02-15T01:21:15;102826.13;;;2.70;71.85
59104;BME280;51449;51.676;5.812;2023-02-15T01:23:39;102816.75;;;2.66;71.97
59104;BME280;51449;51.676;5.812;2023-02-15T01:26:02;102817.47;;;2.61;71.78
59104;BME280;51449;51.676;5.812;2023-02-15T01:28:24;102815.44;;;2.56;71.52
59104;BME280;51449;51.676;5.812;2023-02-15T01:30:46;102818.03;;;2.51;71.66
59104;BME280;51449;51.676;5.812;2023-02-15T01:33:10;102808.66;;;2.47;71.34
59104;BME280;51449;51.676;5.812;2023-02-15T01:35:38;102808.25;;;2.44;71.82
59104;BME280;51449;51.676;5.812;2023-02-15T01:38:00;102807.44;;;2.43;71.79
59104;BME280;51449;51.676;5.812;2023-02-15T01:40:23;102802.25;;;2.42;71.85
59104;BME280;51449;51.676;5.812;2023-02-15T01:42:45;102801.66;;;2.40;71.90
59104;BME280;51449;51.676;5.812;2023-02-15T01:47:42;102808.97;;;2.39;71.75
59104;BME280;51449;51.676;5.812;2023-02-15T01:52:45;102803.28;;;2.41;71.58
59104;BME280;51449;51.676;5.812;2023-02-15T01:55:14;102811.00;;;2.44;71.69
59104;BME280;51449;51.676;5.812;2023-02-15T01:57:36;102797.38;;;2.44;71.64
59104;BME280;51449;51.676;5.812;2023-02-15T02:00:00;102790.91;;;2.45;72.00
59104;BME280;51449;51.676;5.812;2023-02-15T02:02:34;102794.22;;;2.47;71.85
59104;BME280;51449;51.676;5.812;2023-02-15T02:05:00;102789.38;;;2.49;71.97
59104;BME280;51449;51.676;5.812;2023-02-15T02:07:28;102793.16;;;2.48;71.79
59104;BME280;51449;51.676;5.812;2023-02-15T02:09:53;102792.34;;;2.47;71.73
59104;BME280;51449;51.676;5.812;2023-02-15T02:12:18;102791.50;;;2.47;71.72
59104;BME280;51449;51.676;5.812;2023-02-15T02:14:43;102793.38;;;2.46;71.79
59104;BME280;51449;51.676;5.812;2023-02-15T02:17:15;102787.09;;;2.46;71.92
59104;BME280;51449;51.676;5.812;2023-02-15T02:31:47;102767.94;;;2.41;72.22
59104;BME280;51449;51.676;5.812;2023-02-15T02:34:30;102775.28;;;2.40;71.86
59104;BME280;51449;51.676;5.812;2023-02-15T02:37:12;102771.25;;;2.43;71.88
59104;BME280;51449;51.676;5.812;2023-02-15T02:40:03;102772.69;;;2.45;72.29
59104;BME280;51449;51.676;5.812;2023-02-15T02:42:40;102773.28;;;2.47;71.95
59104;BME280;51449;51.676;5.812;2023-02-15T02:45:17;102774.34;;;2.46;72.18
59104;BME280;51449;51.676;5.812;2023-02-15T02:47:49;102767.84;;;2.47;72.01
59104;BME280;51449;51.676;5.812;2023-02-15T02:50:22;102765.47;;;2.51;72.08
59104;BME280;51449;51.676;5.812;2023-02-15T02:52:48;102758.75;;;2.53;72.43
59104;BME280;51449;51.676;5.812;2023-02-15T02:55:13;102762.88;;;2.56;72.15
59104;BME280;51449;51.676;5.812;2023-02-15T02:57:47;102756.41;;;2.57;72.18
59104;BME280;51449;51.676;5.812;2023-02-15T03:00:14;102750.13;;;2.56;72.52
59104;BME280;51449;51.676;5.812;2023-02-15T03:02:39;102742.66;;;2.52;72.60
59104;BME280;51449;51.676;5.812;2023-02-15T03:05:09;102736.84;;;2.48;72.58
59104;BME280;51449;51.676;5.812;2023-02-15T03:07:39;102738.97;;;2.46;72.60
59104;BME280;51449;51.676;5.812;2023-02-15T03:10:04;102737.53;;;2.44;72.73
59104;BME280;51449;51.676;5.812;2023-02-15T03:12:34;102733.38;;;2.41;72.54
59104;BME280;51449;51.676;5.812;2023-02-15T03:15:03;102737.41;;;2.39;72.95
59104;BME280;51449;51.676;5.812;2023-02-15T03:17:27;102733.25;;;2.36;72.52
59104;BME280;51449;51.676;5.812;2023-02-15T03:19:57;102730.78;;;2.34;72.51
59104;BME280;51449;51.676;5.812;2023-02-15T03:22:30;102734.56;;;2.33;73.07
59104;BME280;51449;51.676;5.812;2023-02-15T03:27:34;102725.44;;;2.28;72.57
59104;BME280;51449;51.676;5.812;2023-02-15T03:30:02;102730.28;;;2.26;72.42
59104;BME280;51449;51.676;5.812;2023-02-15T03:32:29;102728.84;;;2.23;72.87
59104;BME280;51449;51.676;5.812;2023-02-15T03:34:54;102731.78;;;2.22;72.79
59104;BME280;51449;51.676;5.812;2023-02-15T03:37:28;102726.34;;;2.22;72.83
59104;BME280;51449;51.676;5.812;2023-02-15T03:40:06;102726.81;;;2.19;72.88
59104;BME280;51449;51.676;5.812;2023-02-15T03:43:01;102718.31;;;2.15;72.79
59104;BME280;51449;51.676;5.812;2023-02-15T03:45:38;102717.91;;;2.11;72.87
59104;BME280;51449;51.676;5.812;2023-02-15T03:48:16;102709.41;;;2.08;72.67
59104;BME280;51449;51.676;5.812;2023-02-15T03:50:39;102711.53;;;2.06;72.90
59104;BME280;51449;51.676;5.812;2023-02-15T03:53:21;102713.63;;;2.04;72.46
59104;BME280;51449;51.676;5.812;2023-02-15T03:55:53;102710.56;;;2.00;72.80
59104;BME280;51449;51.676;5.812;2023-02-15T03:58:16;102705.34;;;1.99;72.81
59104;BME280;51449;51.676;5.812;2023-02-15T04:01:05;102711.00;;;1.97;73.07
59104;BME280;51449;51.676;5.812;2023-02-15T04:04:07;102701.41;;;1.95;72.70
59104;BME280;51449;51.676;5.812;2023-02-15T04:06:35;102698.94;;;1.93;72.94
59104;BME280;51449;51.676;5.812;2023-02-15T04:08:56;102692.66;;;1.92;72.73
59104;BME280;51449;51.676;5.812;2023-02-15T04:11:37;102692.06;;;1.90;72.88
59104;BME280;51449;51.676;5.812;2023-02-15T04:13:58;102693.72;;;1.91;73.02
59104;BME280;51449;51.676;5.812;2023-02-15T04:16:40;102698.34;;;1.91;72.86
59104;BME280;51449;51.676;5.812;2023-02-15T04:19:01;102703.53;;;1.92;73.11
59104;BME280;51449;51.676;5.812;2023-02-15T04:21:41;102703.53;;;1.92;73.34
59104;BME280;51449;51.676;5.812;2023-02-15T04:24:23;102708.13;;;1.92;73.19
59104;BME280;51449;51.676;5.812;2023-02-15T04:27:04;102707.31;;;1.91;73.00
59104;BME280;51449;51.676;5.812;2023-02-15T04:29:28;102706.50;;;1.91;73.48
59104;BME280;51449;51.676;5.812;2023-02-15T04:31:54;102707.53;;;1.90;73.18
59104;BME280;51449;51.676;5.812;2023-02-15T04:34:17;102715.94;;;1.88;73.36
59104;BME280;51449;51.676;5.812;2023-02-15T04:36:40;102704.25;;;1.88;72.98
59104;BME280;51449;51.676;5.812;2023-02-15T04:39:02;102702.56;;;1.87;73.46
59104;BME280;51449;51.676;5.812;2023-02-15T04:41:24;102693.81;;;1.85;73.03
59104;BME280;51449;51.676;5.812;2023-02-15T04:43:46;102694.25;;;1.82;72.90
59104;BME280;51449;51.676;5.812;2023-02-15T04:46:07;102699.09;;;1.80;73.39
59104;BME280;51449;51.676;5.812;2023-02-15T04:48:29;102697.44;;;1.79;73.13
59104;BME280;51449;51.676;5.812;2023-02-15T04:50:51;102694.94;;;1.77;73.24
59104;BME280;51449;51.676;5.812;2023-02-15T04:53:12;102695.19;;;1.76;72.89
59104;BME280;51449;51.676;5.812;2023-02-15T04:55:34;102689.16;;;1.74;73.37
59104;BME280;51449;51.676;5.812;2023-02-15T04:57:56;102684.16;;;1.70;72.71
59104;BME280;51449;51.676;5.812;2023-02-15T05:00:18;102688.41;;;1.66;73.05
59104;BME280;51449;51.676;5.812;2023-02-15T05:02:40;102682.38;;;1.64;73.39
59104;BME280;51449;51.676;5.812;2023-02-15T05:05:01;102686.38;;;1.62;73.09
59104;BME280;51449;51.676;5.812;2023-02-15T05:07:23;102680.31;;;1.60;73.44
59104;BME280;51449;51.676;5.812;2023-02-15T05:09:44;102675.56;;;1.55;73.42
59104;BME280;51449;51.676;5.812;2023-02-15T05:12:06;102678.97;;;1.50;73.25
59104;BME280;51449;51.676;5.812;2023-02-15T05:14:28;102674.22;;;1.46;73.37
59104;BME280;51449;51.676;5.812;2023-02-15T05:16:49;102679.03;;;1.44;73.12
59104;BME280;51449;51.676;5.812;2023-02-15T05:19:11;102678.22;;;1.43;73.29
59104;BME280;51449;51.676;5.812;2023-02-15T05:21:35;102677.38;;;1.43;73.51
59104;BME280;51449;51.676;5.812;2023-02-15T05:23:57;102667.00;;;1.40;73.06
59104;BME280;51449;51.676;5.812;2023-02-15T05:26:21;102668.03;;;1.39;73.79
59104;BME280;51449;51.676;5.812;2023-02-15T05:29:03;102669.56;;;1.35;73.28
59104;BME280;51449;51.676;5.812;2023-02-15T05:31:25;102676.63;;;1.36;73.63
59104;BME280;51449;51.676;5.812;2023-02-15T05:33:47;102674.75;;;1.36;73.61
59104;BME280;51449;51.676;5.812;2023-02-15T05:36:09;102668.72;;;1.34;73.85
59104;BME280;51449;51.676;5.812;2023-02-15T05:38:31;102657.88;;;1.34;73.88
59104;BME280;51449;51.676;5.812;2023-02-15T05:40:53;102666.22;;;1.33;73.88
59104;BME280;51449;51.676;5.812;2023-02-15T05:43:15;102663.72;;;1.31;73.85
59104;BME280;51449;51.676;5.812;2023-02-15T05:45:36;102663.13;;;1.29;73.66
59104;BME280;51449;51.676;5.812;2023-02-15T05:47:58;102663.38;;;1.27;73.85
59104;BME280;51449;51.676;5.812;2023-02-15T05:50:20;102667.72;;;1.28;73.42
59104;BME280;51449;51.676;5.812;2023-02-15T05:52:42;102666.69;;;1.30;73.65
59104;BME280;51449;51.676;5.812;2023-02-15T05:55:05;102659.13;;;1.32;73.13
59104;BME280;51449;51.676;5.812;2023-02-15T05:57:27;102662.09;;;1.30;73.73
59104;BME280;51449;51.676;5.812;2023-02-15T05:59:48;102661.25;;;1.30;73.27
59104;BME280;51449;51.676;5.812;2023-02-15T06:02:10;102663.72;;;1.31;73.57
59104;BME280;51449;51.676;5.812;2023-02-15T06:04:32;102673.78;;;1.31;73.87
59104;BME280;51449;51.676;5.812;2023-02-15T06:06:54;102674.16;;;1.34;73.91
59104;BME280;51449;51.676;5.812;2023-02-15T06:09:15;102664.94;;;1.35;73.71
59104;BME280;51449;51.676;5.812;2023-02-15T06:11:39;102676.63;;;1.36;73.42
59104;BME280;51449;51.676;5.812;2023-02-15T06:14:01;102672.88;;;1.37;73.75
59104;BME280;51449;51.676;5.812;2023-02-15T06:16:22;102669.91;;;1.38;73.66
59104;BME280;51449;51.676;5.812;2023-02-15T06:18:44;102671.59;;;1.39;73.30
59104;BME280;51449;51.676;5.812;2023-02-15T06:21:06;102675.75;;;1.42;73.26
59104;BME280;51449;51.676;5.812;2023-02-15T06:23:27;102675.50;;;1.43;73.92
59104;BME280;51449;51.676;5.812;2023-02-15T06:25:49;102676.09;;;1.45;73.67
59104;BME280;51449;51.676;5.812;2023-02-15T06:28:11;102671.50;;;1.46;73.65
59104;BME280;51449;51.676;5.812;2023-02-15T06:30:33;102671.50;;;1.46;73.71
59104;BME280;51449;51.676;5.812;2023-02-15T06:32:56;102684.84;;;1.47;73.72
59104;BME280;51449;51.676;5.812;2023-02-15T06:35:18;102677.78;;;1.46;73.93
59104;BME280;51449;51.676;5.812;2023-02-15T06:37:40;102679.44;;;1.47;73.90
59104;BME280;51449;51.676;5.812;2023-02-15T06:40:02;102682.16;;;1.47;73.80
59104;BME280;51449;51.676;5.812;2023-02-15T06:42:25;102666.22;;;1.51;73.90
59104;BME280;51449;51.676;5.812;2023-02-15T06:44:46;102668.72;;;1.53;73.93
59104;BME280;51449;51.676;5.812;2023-02-15T06:47:08;102671.22;;;1.54;73.67
59104;BME280;51449;51.676;5.812;2023-02-15T06:49:30;102672.25;;;1.53;73.77
59104;BME280;51449;51.676;5.812;2023-02-15T06:51:52;102673.31;;;1.52;73.92
59104;BME280;51449;51.676;5.812;2023-02-15T06:54:13;102671.22;;;1.54;74.35
59104;BME280;51449;51.676;5.812;2023-02-15T06:56:35;102665.53;;;1.56;73.93
59104;BME280;51449;51.676;5.812;2023-02-15T06:58:56;102669.09;;;1.56;74.04
59104;BME280;51449;51.676;5.812;2023-02-15T07:01:18;102666.59;;;1.55;73.86
59104;BME280;51449;51.676;5.812;2023-02-15T07:03:40;102657.63;;;1.54;74.13
59104;BME280;51449;51.676;5.812;2023-02-15T07:06:03;102665.78;;;1.54;74.19
59104;BME280;51449;51.676;5.812;2023-02-15T07:08:29;102659.75;;;1.52;74.37
59104;BME280;51449;51.676;5.812;2023-02-15T07:10:51;102659.28;;;1.55;74.53
59104;BME280;51449;51.676;5.812;2023-02-15T07:13:14;102654.66;;;1.56;74.56
59104;BME280;51449;51.676;5.812;2023-02-15T07:15:36;102647.13;;;1.58;74.04
59104;BME280;51449;51.676;5.812;2023-02-15T07:17:58;102649.63;;;1.59;73.98
59104;BME280;51449;51.676;5.812;2023-02-15T07:20:22;102650.66;;;1.58;74.17
59104;BME280;51449;51.676;5.812;2023-02-15T07:22:44;102649.00;;;1.57;74.56
59104;BME280;51449;51.676;5.812;2023-02-15T07:25:08;102643.19;;;1.54;74.34
59104;BME280;51449;51.676;5.812;2023-02-15T07:27:31;102647.59;;;1.55;74.63
59104;BME280;51449;51.676;5.812;2023-02-15T07:29:52;102649.63;;;1.59;74.28
59104;BME280;51449;51.676;5.812;2023-02-15T07:32:14;102647.50;;;1.61;74.66
59104;BME280;51449;51.676;5.812;2023-02-15T07:34:36;102637.81;;;1.65;74.55
59104;BME280;51449;51.676;5.812;2023-02-15T07:36:57;102644.47;;;1.69;74.43
59104;BME280;51449;51.676;5.812;2023-02-15T07:39:20;102639.16;;;1.75;74.93
59104;BME280;51449;51.676;5.812;2023-02-15T07:41:42;102630.56;;;1.78;74.96
59104;BME280;51449;51.676;5.812;2023-02-15T07:44:11;102629.88;;;1.82;75.35
59104;BME280;51449;51.676;5.812;2023-02-15T07:46:34;102631.28;;;1.85;74.78
59104;BME280;51449;51.676;5.812;2023-02-15T07:48:56;102630.38;;;1.91;75.19
59104;BME280;51449;51.676;5.812;2023-02-15T07:51:18;102627.34;;;1.99;74.96
59104;BME280;51449;51.676;5.812;2023-02-15T07:53:40;102625.94;;;2.08;74.91
59104;BME280;51449;51.676;5.812;2023-02-15T07:56:05;102629.16;;;2.17;75.37
59104;BME280;51449;51.676;5.812;2023-02-15T07:58:30;102644.31;;;2.25;75.73
59104;BME280;51449;51.676;5.812;2023-02-15T08:01:10;102634.53;;;2.35;75.48
59104;BME280;51449;51.676;5.812;2023-02-15T08:03:32;102630.63;;;2.43;75.23
59104;BME280;51449;51.676;5.812;2023-02-15T08:05:58;102631.94;;;2.52;75.62
59104;BME280;51449;51.676;5.812;2023-02-15T08:08:21;102628.88;;;2.61;76.05
59104;BME280;51449;51.676;5.812;2023-02-15T08:10:52;102625.34;;;2.72;75.91
59104;BME280;51449;51.676;5.812;2023-02-15T08:13:33;102630.19;;;2.82;76.18
59104;BME280;51449;51.676;5.812;2023-02-15T08:15:55;102616.47;;;2.88;75.96
59104;BME280;51449;51.676;5.812;2023-02-15T08:18:17;102613.13;;;2.98;75.68
59104;BME280;51449;51.676;5.812;2023-02-15T08:20:39;102617.13;;;3.07;76.10
59104;BME280;51449;51.676;5.812;2023-02-15T08:23:01;102615.69;;;3.16;76.15
59104;BME280;51449;51.676;5.812;2023-02-15T08:25:22;102610.13;;;3.23;75.87
59104;BME280;51449;51.676;5.812;2023-02-15T08:27:44;102599.09;;;3.30;75.96
59104;BME280;51449;51.676;5.812;2023-02-15T08:30:06;102598.50;;;3.39;75.73
59104;BME280;51449;51.676;5.812;2023-02-15T08:32:28;102589.91;;;3.48;76.31
59104;BME280;51449;51.676;5.812;2023-02-15T08:34:50;102596.06;;;3.55;76.09
59104;BME280;51449;51.676;5.812;2023-02-15T08:37:11;102591.28;;;3.62;76.04
59104;BME280;51449;51.676;5.812;2023-02-15T08:39:33;102596.34;;;3.70;75.96
59104;BME280;51449;51.676;5.812;2023-02-15T08:41:56;102591.34;;;3.79;75.92
59104;BME280;51449;51.676;5.812;2023-02-15T08:44:18;102587.72;;;3.90;75.76
59104;BME280;51449;51.676;5.812;2023-02-15T08:46:43;102596.31;;;3.99;75.75
59104;BME280;51449;51.676;5.812;2023-02-15T08:49:07;102589.41;;;4.08;76.08
59104;BME280;51449;51.676;5.812;2023-02-15T08:51:33;102591.72;;;4.16;75.99
59104;BME280;51449;51.676;5.812;2023-02-15T08:53:58;102593.78;;;4.26;75.73
59104;BME280;51449;51.676;5.812;2023-02-15T08:56:25;102581.97;;;4.37;75.87
59104;BME280;51449;51.676;5.812;2023-02-15T08:58:49;102590.09;;;4.49;75.87
59104;BME280;51449;51.676;5.812;2023-02-15T09:01:13;102587.22;;;4.61;75.85
59104;BME280;51449;51.676;5.812;2023-02-15T09:03:41;102588.81;;;4.74;75.97
59104;BME280;51449;51.676;5.812;2023-02-15T09:06:03;102587.63;;;4.86;75.75
59104;BME280;51449;51.676;5.812;2023-02-15T09:08:26;102582.56;;;4.95;75.61
59104;BME280;51449;51.676;5.812;2023-02-15T09:10:48;102579.97;;;5.05;75.75
59104;BME280;51449;51.676;5.812;2023-02-15T09:13:10;102572.72;;;5.16;75.61
59104;BME280;51449;51.676;5.812;2023-02-15T09:15:32;102575.31;;;5.28;75.33
59104;BME280;51449;51.676;5.812;2023-02-15T09:17:53;102575.72;;;5.36;75.33
59104;BME280;51449;51.676;5.812;2023-02-15T09:20:15;102575.81;;;5.47;75.03
59104;BME280;51449;51.676;5.812;2023-02-15T09:22:37;102580.31;;;5.58;75.17
59104;BME280;51449;51.676;5.812;2023-02-15T09:24:58;102579.59;;;5.68;74.92
59104;BME280;51449;51.676;5.812;2023-02-15T09:27:20;102578.56;;;5.74;75.11
59104;BME280;51449;51.676;5.812;2023-02-15T09:29:41;102572.63;;;5.82;74.81
59104;BME280;51449;51.676;5.812;2023-02-15T09:32:03;102571.59;;;5.88;75.03
59104;BME280;51449;51.676;5.812;2023-02-15T09:34:25;102574.47;;;5.98;74.65
59104;BME280;51449;51.676;5.812;2023-02-15T09:36:47;102571.81;;;6.09;74.39
59104;BME280;51449;51.676;5.812;2023-02-15T09:39:18;102571.06;;;6.18;74.71
59104;BME280;51449;51.676;5.812;2023-02-15T09:45:12;102559.19;;;6.40;74.31
59104;BME280;51449;51.676;5.812;2023-02-15T09:50:57;102564.00;;;6.60;73.56
59104;BME280;51449;51.676;5.812;2023-02-15T09:53:51;102546.53;;;6.71;73.50
59104;BME280;51449;51.676;5.812;2023-02-15T09:56:31;102553.19;;;6.85;73.56
59104;BME280;51449;51.676;5.812;2023-02-15T09:59:12;102553.81;;;6.98;73.74
59104;BME280;51449;51.676;5.812;2023-02-15T10:02:06;102554.69;;;7.14;73.05
59104;BME280;51449;51.676;5.812;2023-02-15T10:05:00;102553.91;;;7.28;73.21
59104;BME280;51449;51.676;5.812;2023-02-15T10:10:35;102545.22;;;7.57;72.81
59104;BME280;51449;51.676;5.812;2023-02-15T10:13:36;102547.44;;;7.70;72.58
59104;BME280;51449;51.676;5.812;2023-02-15T10:16:27;102548.84;;;7.88;72.11
59104;BME280;51449;51.676;5.812;2023-02-15T10:22:29;102540.91;;;8.23;72.02
59104;BME280;51449;51.676;5.812;2023-02-15T10:27:52;102549.41;;;8.52;70.94
59104;BME280;51449;51.676;5.812;2023-02-15T10:30:50;102538.66;;;8.71;70.63
59104;BME280;51449;51.676;5.812;2023-02-15T10:33:35;102545.22;;;8.80;70.53
59104;BME280;51449;51.676;5.812;2023-02-15T10:36:15;102541.63;;;8.95;70.25
59104;BME280;51449;51.676;5.812;2023-02-15T10:39:10;102537.41;;;9.13;69.72
59104;BME280;51449;51.676;5.812;2023-02-15T10:41:57;102548.63;;;9.27;69.53
59104;BME280;51449;51.676;5.812;2023-02-15T10:44:41;102542.50;;;9.40;68.92
59104;BME280;51449;51.676;5.812;2023-02-15T10:47:37;102539.94;;;9.54;68.78
59104;BME280;51449;51.676;5.812;2023-02-15T10:50:40;102534.34;;;9.69;68.60
59104;BME280;51449;51.676;5.812;2023-02-15T10:53:26;102532.59;;;9.83;68.37
59104;BME280;51449;51.676;5.812;2023-02-15T10:59:32;102533.22;;;10.10;67.40
59104;BME280;51449;51.676;5.812;2023-02-15T11:05:25;102533.34;;;10.28;65.25
59104;BME280;51449;51.676;5.812;2023-02-15T11:07:59;102529.38;;;10.40;65.12
59104;BME280;51449;51.676;5.812;2023-02-15T11:10:42;102524.84;;;10.54;64.81
59104;BME280;51449;51.676;5.812;2023-02-15T11:13:15;102529.69;;;10.62;64.15
59104;BME280;51449;51.676;5.812;2023-02-15T11:15:50;102520.22;;;10.74;63.70
59104;BME280;51449;51.676;5.812;2023-02-15T11:22:12;102513.28;;;11.00;62.60
59104;BME280;51449;51.676;5.812;2023-02-15T11:26:37;102508.59;;;11.20;61.30
59104;BME280;51449;51.676;5.812;2023-02-15T11:29:29;102506.44;;;11.35;61.27
59104;BME280;51449;51.676;5.812;2023-02-15T11:32:11;102506.28;;;11.46;60.87
59104;BME280;51449;51.676;5.812;2023-02-15T11:40:49;102499.63;;;11.85;60.68
59104;BME280;51449;51.676;5.812;2023-02-15T11:43:35;102490.69;;;11.93;60.71
59104;BME280;51449;51.676;5.812;2023-02-15T11:46:03;102485.59;;;12.00;59.95
59104;BME280;51449;51.676;5.812;2023-02-15T11:48:25;102483.75;;;12.09;60.19
59104;BME280;51449;51.676;5.812;2023-02-15T11:50:47;102479.81;;;12.15;59.47
59104;BME280;51449;51.676;5.812;2023-02-15T11:53:12;102470.59;;;12.20;59.10
59104;BME280;51449;51.676;5.812;2023-02-15T11:55:37;102474.91;;;12.26;58.83
59104;BME280;51449;51.676;5.812;2023-02-15T12:01:47;102456.28;;;12.46;58.96
59104;BME280;51449;51.676;5.812;2023-02-15T12:03:59;102453.53;;;12.59;58.91
59104;BME280;51449;51.676;5.812;2023-02-15T12:06:41;102447.78;;;12.70;58.22
59104;BME280;51449;51.676;5.812;2023-02-15T12:12:42;102437.22;;;12.85;54.89
59104;BME280;51449;51.676;5.812;2023-02-15T12:15:10;102430.16;;;12.93;55.43
59104;BME280;51449;51.676;5.812;2023-02-15T12:17:51;102430.13;;;13.07;55.25
59104;BME280;51449;51.676;5.812;2023-02-15T12:22:37;102419.31;;;13.19;54.82
59104;BME280;51449;51.676;5.812;2023-02-15T12:25:00;102416.09;;;13.26;54.43
59104;BME280;51449;51.676;5.812;2023-02-15T12:27:33;102416.84;;;13.32;53.34
59104;BME280;51449;51.676;5.812;2023-02-15T12:30:00;102415.59;;;13.38;53.57
59104;BME280;51449;51.676;5.812;2023-02-15T12:32:31;102417.41;;;13.42;53.38
59104;BME280;51449;51.676;5.812;2023-02-15T12:35:01;102417.78;;;13.49;53.71
59104;BME280;51449;51.676;5.812;2023-02-15T12:37:31;102421.25;;;13.55;54.08
59104;BME280;51449;51.676;5.812;2023-02-15T12:40:00;102419.66;;;13.63;52.47
59104;BME280;51449;51.676;5.812;2023-02-15T12:42:43;102419.88;;;13.66;52.71
59104;BME280;51449;51.676;5.812;2023-02-15T12:50:36;102416.09;;;13.62;51.93
59104;BME280;51449;51.676;5.812;2023-02-15T12:53:19;102413.69;;;13.69;52.27
59104;BME280;51449;51.676;5.812;2023-02-15T12:55:56;102409.16;;;13.74;52.36
59104;BME280;51449;51.676;5.812;2023-02-15T12:58:23;102402.34;;;13.80;52.76
59104;BME280;51449;51.676;5.812;2023-02-15T13:00:46;102403.84;;;13.86;51.98
59104;BME280;51449;51.676;5.812;2023-02-15T13:03:17;102394.25;;;13.92;51.80
59104;BME280;51449;51.676;5.812;2023-02-15T13:05:44;102393.00;;;13.98;52.02
59104;BME280;51449;51.676;5.812;2023-02-15T13:08:19;102401.00;;;14.00;51.81
59104;BME280;51449;51.676;5.812;2023-02-15T13:11:07;102397.25;;;14.04;52.29
59104;BME280;51449;51.676;5.812;2023-02-15T13:13:33;102382.91;;;14.02;52.18
59104;BME280;51449;51.676;5.812;2023-02-15T13:16:30;102374.97;;;14.09;52.69
59104;BME280;51449;51.676;5.812;2023-02-15T13:18:54;102380.50;;;14.09;52.61
59104;BME280;51449;51.676;5.812;2023-02-15T13:21:21;102371.19;;;14.14;51.96
59104;BME280;51449;51.676;5.812;2023-02-15T13:23:50;102379.72;;;14.18;52.14
59104;BME280;51449;51.676;5.812;2023-02-15T13:26:20;102370.25;;;14.19;52.12
59104;BME280;51449;51.676;5.812;2023-02-15T13:28:50;102367.66;;;14.22;52.02
59104;BME280;51449;51.676;5.812;2023-02-15T13:31:19;102367.31;;;14.24;51.99
59104;BME280;51449;51.676;5.812;2023-02-15T13:33:49;102365.56;;;14.28;51.85
59104;BME280;51449;51.676;5.812;2023-02-15T13:36:23;102362.97;;;14.31;52.07
59104;BME280;51449;51.676;5.812;2023-02-15T13:42:19;102345.53;;;14.40;52.30
59104;BME280;51449;51.676;5.812;2023-02-15T13:45:08;102344.38;;;14.41;52.19
59104;BME280;51449;51.676;5.812;2023-02-15T13:47:59;102335.25;;;14.40;52.65
59104;BME280;51449;51.676;5.812;2023-02-15T14:02:28;102317.63;;;14.27;52.73
59104;BME280;51449;51.676;5.812;2023-02-15T14:08:09;102320.34;;;14.19;51.92
59104;BME280;51449;51.676;5.812;2023-02-15T14:13:15;102324.09;;;14.14;52.32
59104;BME280;51449;51.676;5.812;2023-02-15T14:19:02;102330.28;;;14.11;52.34
59104;BME280;51449;51.676;5.812;2023-02-15T14:21:40;102330.94;;;14.08;51.92
59104;BME280;51449;51.676;5.812;2023-02-15T14:24:30;102334.19;;;14.10;52.13
59104;BME280;51449;51.676;5.812;2023-02-15T14:30:09;102337.78;;;14.10;52.03
59104;BME280;51449;51.676;5.812;2023-02-15T14:32:49;102333.56;;;14.13;51.99
59104;BME280;51449;51.676;5.812;2023-02-15T14:35:17;102334.19;;;14.10;51.90
59104;BME280;51449;51.676;5.812;2023-02-15T14:38:03;102336.31;;;14.13;52.19